sensor_id;sensor_type;location;lat;lon;timestamp;P1;durP1;ratioP1;P2;durP2;ratioP2
10715;SDS011;5409;42.620;23.316;2022-07-10T00:01:59;14.45;;;13.05;;
10715;SDS011;5409;42.620;23.316;2022-07-10T00:04:25;14.13;;;12.73;;
10715;SDS011;5409;42.620;23.316;2022-07-10T00:06:52;14.43;;;12.38;;
10715;SDS011;5409;42.620;23.316;2022-07-10T00:09:22;15.50;;;13.75;;
10715;SDS011;5409;42.620;23.316;2022-07-10T00:11:49;12.95;;;11.75;;
10715;SDS011;5409;42.620;23.316;2022-07-10T00:14:15;13.45;;;12.15;;
10715;SDS011;5409;42.620;23.316;2022-07-10T00:16:42;13.68;;;12.38;;
10715;SDS011;5409;42.620;23.316;2022-07-10T00:19:09;15.93;;;12.57;;
10715;SDS011;5409;42.620;23.316;2022-07-10T00:21:35;18.83;;;13.48;;
10715;SDS011;5409;42.620;23.316;2022-07-10T00:24:03;12.60;;;11.40;;
10715;SDS011;5409;42.620;23.316;2022-07-10T00:26:31;14.35;;;12.95;;
10715;SDS011;5409;42.620;23.316;2022-07-10T00:28:58;13.60;;;12.25;;
10715;SDS011;5409;42.620;23.316;2022-07-10T00:31:25;14.65;;;12.20;;
10715;SDS011;5409;42.620;23.316;2022-07-10T00:33:52;13.80;;;12.38;;
10715;SDS011;5409;42.620;23.316;2022-07-10T00:36:18;13.32;;;11.95;;
10715;SDS011;5409;42.620;23.316;2022-07-10T00:38:45;13.65;;;12.25;;
10715;SDS011;5409;42.620;23.316;2022-07-10T00:41:12;12.52;;;11.23;;
10715;SDS011;5409;42.620;23.316;2022-07-10T00:43:52;15.43;;;11.77;;
10715;SDS011;5409;42.620;23.316;2022-07-10T00:46:20;14.20;;;11.75;;
10715;SDS011;5409;42.620;23.316;2022-07-10T00:48:47;13.43;;;10.95;;
10715;SDS011;5409;42.620;23.316;2022-07-10T00:51:14;12.93;;;11.52;;
10715;SDS011;5409;42.620;23.316;2022-07-10T00:53:42;12.82;;;11.43;;
10715;SDS011;5409;42.620;23.316;2022-07-10T00:56:11;12.30;;;11.18;;
10715;SDS011;5409;42.620;23.316;2022-07-10T00:58:40;13.55;;;11.80;;
10715;SDS011;5409;42.620;23.316;2022-07-10T01:01:08;11.98;;;10.88;;
10715;SDS011;5409;42.620;23.316;2022-07-10T01:03:35;12.88;;;10.98;;
10715;SDS011;5409;42.620;23.316;2022-07-10T01:06:02;10.77;;;9.85;;
10715;SDS011;5409;42.620;23.316;2022-07-10T01:08:29;11.45;;;10.35;;
10715;SDS011;5409;42.620;23.316;2022-07-10T01:10:56;13.20;;;10.50;;
10715;SDS011;5409;42.620;23.316;2022-07-10T01:13:23;11.25;;;10.25;;
10715;SDS011;5409;42.620;23.316;2022-07-10T01:15:50;15.60;;;11.55;;
10715;SDS011;5409;42.620;23.316;2022-07-10T01:18:19;12.43;;;10.90;;
10715;SDS011;5409;42.620;23.316;2022-07-10T01:20:51;12.07;;;10.80;;
10715;SDS011;5409;42.620;23.316;2022-07-10T01:23:18;11.27;;;10.20;;
10715;SDS011;5409;42.620;23.316;2022-07-10T01:25:45;13.90;;;10.77;;
10715;SDS011;5409;42.620;23.316;2022-07-10T01:28:11;10.98;;;9.88;;
10715;SDS011;5409;42.620;23.316;2022-07-10T01:30:38;12.60;;;10.02;;
10715;SDS011;5409;42.620;23.316;2022-07-10T01:33:05;11.23;;;9.82;;
10715;SDS011;5409;42.620;23.316;2022-07-10T01:35:31;10.70;;;9.75;;
10715;SDS011;5409;42.620;23.316;2022-07-10T01:38:00;10.65;;;9.40;;
10715;SDS011;5409;42.620;23.316;2022-07-10T01:40:26;10.73;;;9.45;;
10715;SDS011;5409;42.620;23.316;2022-07-10T01:42:53;10.77;;;9.65;;
10715;SDS011;5409;42.620;23.316;2022-07-10T01:45:20;10.57;;;9.63;;
10715;SDS011;5409;42.620;23.316;2022-07-10T01:47:47;11.90;;;9.68;;
10715;SDS011;5409;42.620;23.316;2022-07-10T01:50:13;9.95;;;9.05;;
10715;SDS011;5409;42.620;23.316;2022-07-10T01:52:40;10.70;;;9.60;;
10715;SDS011;5409;42.620;23.316;2022-07-10T01:55:08;11.00;;;9.90;;
10715;SDS011;5409;42.620;23.316;2022-07-10T01:57:35;10.15;;;9.15;;
10715;SDS011;5409;42.620;23.316;2022-07-10T02:00:03;10.48;;;9.43;;
10715;SDS011;5409;42.620;23.316;2022-07-10T02:02:31;11.80;;;9.57;;
10715;SDS011;5409;42.620;23.316;2022-07-10T02:04:57;10.85;;;9.82;;
10715;SDS011;5409;42.620;23.316;2022-07-10T02:07:23;11.00;;;9.52;;
10715;SDS011;5409;42.620;23.316;2022-07-10T02:09:51;12.38;;;10.00;;
10715;SDS011;5409;42.620;23.316;2022-07-10T02:12:19;11.68;;;10.27;;
10715;SDS011;5409;42.620;23.316;2022-07-10T02:14:46;10.80;;;9.63;;
10715;SDS011;5409;42.620;23.316;2022-07-10T02:17:13;12.38;;;10.50;;
10715;SDS011;5409;42.620;23.316;2022-07-10T02:19:41;13.20;;;10.40;;
10715;SDS011;5409;42.620;23.316;2022-07-10T02:22:08;13.35;;;9.32;;
10715;SDS011;5409;42.620;23.316;2022-07-10T02:24:34;10.82;;;9.73;;
10715;SDS011;5409;42.620;23.316;2022-07-10T02:27:01;10.63;;;9.27;;
10715;SDS011;5409;42.620;23.316;2022-07-10T02:29:29;11.88;;;9.55;;
10715;SDS011;5409;42.620;23.316;2022-07-10T02:31:56;11.13;;;10.00;;
10715;SDS011;5409;42.620;23.316;2022-07-10T02:34:23;12.60;;;10.13;;
10715;SDS011;5409;42.620;23.316;2022-07-10T02:36:50;9.27;;;8.30;;
10715;SDS011;5409;42.620;23.316;2022-07-10T02:39:17;10.75;;;7.95;;
10715;SDS011;5409;42.620;23.316;2022-07-10T02:41:44;10.50;;;8.57;;
10715;SDS011;5409;42.620;23.316;2022-07-10T02:44:11;10.95;;;8.90;;
10715;SDS011;5409;42.620;23.316;2022-07-10T02:46:39;11.23;;;9.75;;
10715;SDS011;5409;42.620;23.316;2022-07-10T02:49:06;10.80;;;9.70;;
10715;SDS011;5409;42.620;23.316;2022-07-10T02:51:32;10.45;;;9.13;;
10715;SDS011;5409;42.620;23.316;2022-07-10T02:53:59;12.32;;;11.18;;
10715;SDS011;5409;42.620;23.316;2022-07-10T02:56:26;13.48;;;11.00;;
10715;SDS011;5409;42.620;23.316;2022-07-10T02:58:52;11.65;;;10.38;;
10715;SDS011;5409;42.620;23.316;2022-07-10T03:01:19;11.88;;;10.68;;
10715;SDS011;5409;42.620;23.316;2022-07-10T03:03:47;11.63;;;10.50;;
10715;SDS011;5409;42.620;23.316;2022-07-10T03:06:14;11.65;;;10.43;;
10715;SDS011;5409;42.620;23.316;2022-07-10T03:08:40;11.73;;;10.57;;
10715;SDS011;5409;42.620;23.316;2022-07-10T03:11:07;12.88;;;11.68;;
10715;SDS011;5409;42.620;23.316;2022-07-10T03:13:34;13.25;;;11.25;;
10715;SDS011;5409;42.620;23.316;2022-07-10T03:16:01;13.48;;;9.77;;
10715;SDS011;5409;42.620;23.316;2022-07-10T03:18:28;13.88;;;11.10;;
10715;SDS011;5409;42.620;23.316;2022-07-10T03:20:56;12.02;;;10.82;;
10715;SDS011;5409;42.620;23.316;2022-07-10T03:23:22;12.93;;;11.63;;
10715;SDS011;5409;42.620;23.316;2022-07-10T03:25:49;14.20;;;11.88;;
10715;SDS011;5409;42.620;23.316;2022-07-10T03:28:16;13.68;;;12.27;;
10715;SDS011;5409;42.620;23.316;2022-07-10T03:30:42;12.75;;;11.55;;
10715;SDS011;5409;42.620;23.316;2022-07-10T03:33:09;15.48;;;11.95;;
10715;SDS011;5409;42.620;23.316;2022-07-10T03:35:36;14.57;;;12.38;;
10715;SDS011;5409;42.620;23.316;2022-07-10T03:38:04;13.90;;;12.57;;
10715;SDS011;5409;42.620;23.316;2022-07-10T03:40:31;13.00;;;11.73;;
10715;SDS011;5409;42.620;23.316;2022-07-10T03:42:58;12.20;;;11.10;;
10715;SDS011;5409;42.620;23.316;2022-07-10T03:45:25;12.38;;;10.60;;
10715;SDS011;5409;42.620;23.316;2022-07-10T03:47:52;13.30;;;11.77;;
10715;SDS011;5409;42.620;23.316;2022-07-10T03:50:18;13.05;;;11.30;;
10715;SDS011;5409;42.620;23.316;2022-07-10T03:52:45;11.80;;;10.55;;
10715;SDS011;5409;42.620;23.316;2022-07-10T03:55:13;16.30;;;10.98;;
10715;SDS011;5409;42.620;23.316;2022-07-10T03:57:40;11.30;;;10.00;;
10715;SDS011;5409;42.620;23.316;2022-07-10T04:00:21;11.05;;;9.95;;
10715;SDS011;5409;42.620;23.316;2022-07-10T04:02:48;11.15;;;10.15;;
10715;SDS011;5409;42.620;23.316;2022-07-10T04:05:19;15.43;;;10.45;;
10715;SDS011;5409;42.620;23.316;2022-07-10T04:07:46;11.60;;;10.40;;
10715;SDS011;5409;42.620;23.316;2022-07-10T04:10:14;10.80;;;9.23;;
10715;SDS011;5409;42.620;23.316;2022-07-10T04:12:41;10.85;;;9.00;;
10715;SDS011;5409;42.620;23.316;2022-07-10T04:15:08;13.10;;;10.40;;
10715;SDS011;5409;42.620;23.316;2022-07-10T04:17:35;16.23;;;9.95;;
10715;SDS011;5409;42.620;23.316;2022-07-10T04:20:02;10.10;;;9.10;;
10715;SDS011;5409;42.620;23.316;2022-07-10T04:22:29;10.35;;;9.35;;
10715;SDS011;5409;42.620;23.316;2022-07-10T04:24:56;12.07;;;8.75;;
10715;SDS011;5409;42.620;23.316;2022-07-10T04:27:24;12.02;;;8.95;;
10715;SDS011;5409;42.620;23.316;2022-07-10T04:29:51;8.60;;;7.80;;
10715;SDS011;5409;42.620;23.316;2022-07-10T04:32:18;8.57;;;7.78;;
10715;SDS011;5409;42.620;23.316;2022-07-10T04:34:44;11.82;;;8.35;;
10715;SDS011;5409;42.620;23.316;2022-07-10T04:37:11;9.52;;;7.93;;
10715;SDS011;5409;42.620;23.316;2022-07-10T04:39:38;8.45;;;7.68;;
10715;SDS011;5409;42.620;23.316;2022-07-10T04:42:05;10.02;;;8.25;;
10715;SDS011;5409;42.620;23.316;2022-07-10T04:44:34;7.95;;;7.25;;
10715;SDS011;5409;42.620;23.316;2022-07-10T04:47:01;8.25;;;7.45;;
10715;SDS011;5409;42.620;23.316;2022-07-10T04:49:28;7.95;;;7.25;;
10715;SDS011;5409;42.620;23.316;2022-07-10T04:51:55;7.55;;;6.65;;
10715;SDS011;5409;42.620;23.316;2022-07-10T04:54:22;7.40;;;6.65;;
10715;SDS011;5409;42.620;23.316;2022-07-10T04:56:49;7.80;;;6.80;;
10715;SDS011;5409;42.620;23.316;2022-07-10T04:59:15;7.70;;;6.82;;
10715;SDS011;5409;42.620;23.316;2022-07-10T05:01:43;9.10;;;6.60;;
10715;SDS011;5409;42.620;23.316;2022-07-10T05:04:10;7.93;;;6.30;;
10715;SDS011;5409;42.620;23.316;2022-07-10T05:06:37;6.45;;;5.85;;
10715;SDS011;5409;42.620;23.316;2022-07-10T05:09:04;6.78;;;6.07;;
10715;SDS011;5409;42.620;23.316;2022-07-10T05:11:31;7.20;;;6.30;;
10715;SDS011;5409;42.620;23.316;2022-07-10T05:13:58;7.63;;;6.22;;
10715;SDS011;5409;42.620;23.316;2022-07-10T05:16:24;7.13;;;5.68;;
10715;SDS011;5409;42.620;23.316;2022-07-10T05:18:52;7.03;;;5.70;;
10715;SDS011;5409;42.620;23.316;2022-07-10T05:21:19;7.00;;;5.57;;
10715;SDS011;5409;42.620;23.316;2022-07-10T05:23:46;6.47;;;5.88;;
10715;SDS011;5409;42.620;23.316;2022-07-10T05:26:13;6.22;;;5.63;;
10715;SDS011;5409;42.620;23.316;2022-07-10T05:28:39;6.10;;;5.35;;
10715;SDS011;5409;42.620;23.316;2022-07-10T05:31:06;7.43;;;5.72;;
10715;SDS011;5409;42.620;23.316;2022-07-10T05:33:33;6.63;;;6.03;;
10715;SDS011;5409;42.620;23.316;2022-07-10T05:36:01;5.78;;;5.28;;
10715;SDS011;5409;42.620;23.316;2022-07-10T05:38:28;5.82;;;5.32;;
10715;SDS011;5409;42.620;23.316;2022-07-10T05:40:55;5.93;;;5.43;;
10715;SDS011;5409;42.620;23.316;2022-07-10T05:43:21;6.15;;;5.55;;
10715;SDS011;5409;42.620;23.316;2022-07-10T05:45:48;6.15;;;5.07;;
10715;SDS011;5409;42.620;23.316;2022-07-10T05:48:15;5.65;;;5.10;;
10715;SDS011;5409;42.620;23.316;2022-07-10T05:50:41;6.68;;;5.20;;
10715;SDS011;5409;42.620;23.316;2022-07-10T05:53:09;5.95;;;5.35;;
10715;SDS011;5409;42.620;23.316;2022-07-10T05:55:36;5.82;;;4.93;;
10715;SDS011;5409;42.620;23.316;2022-07-10T05:58:03;5.93;;;5.32;;
10715;SDS011;5409;42.620;23.316;2022-07-10T06:00:30;5.93;;;5.43;;
10715;SDS011;5409;42.620;23.316;2022-07-10T06:02:56;5.90;;;5.30;;
10715;SDS011;5409;42.620;23.316;2022-07-10T06:05:23;5.88;;;5.07;;
10715;SDS011;5409;42.620;23.316;2022-07-10T06:07:50;6.97;;;4.88;;
10715;SDS011;5409;42.620;23.316;2022-07-10T06:10:18;6.88;;;4.95;;
10715;SDS011;5409;42.620;23.316;2022-07-10T06:12:45;5.40;;;4.90;;
10715;SDS011;5409;42.620;23.316;2022-07-10T06:15:12;7.70;;;4.75;;
10715;SDS011;5409;42.620;23.316;2022-07-10T06:17:38;4.80;;;4.30;;
10715;SDS011;5409;42.620;23.316;2022-07-10T06:20:05;5.38;;;4.78;;
10715;SDS011;5409;42.620;23.316;2022-07-10T06:22:33;4.57;;;4.18;;
10715;SDS011;5409;42.620;23.316;2022-07-10T06:25:00;4.57;;;4.18;;
10715;SDS011;5409;42.620;23.316;2022-07-10T06:27:29;4.50;;;4.10;;
10715;SDS011;5409;42.620;23.316;2022-07-10T06:29:55;5.15;;;4.00;;
10715;SDS011;5409;42.620;23.316;2022-07-10T06:32:23;4.47;;;3.75;;
10715;SDS011;5409;42.620;23.316;2022-07-10T06:34:50;4.40;;;4.00;;
10715;SDS011;5409;42.620;23.316;2022-07-10T06:37:17;4.68;;;4.28;;
10715;SDS011;5409;42.620;23.316;2022-07-10T06:39:44;3.67;;;3.35;;
10715;SDS011;5409;42.620;23.316;2022-07-10T06:42:11;7.25;;;3.90;;
10715;SDS011;5409;42.620;23.316;2022-07-10T06:44:39;5.20;;;3.58;;
10715;SDS011;5409;42.620;23.316;2022-07-10T06:47:07;3.70;;;3.40;;
10715;SDS011;5409;42.620;23.316;2022-07-10T06:49:52;5.13;;;3.30;;
10715;SDS011;5409;42.620;23.316;2022-07-10T06:52:19;4.95;;;3.80;;
10715;SDS011;5409;42.620;23.316;2022-07-10T06:54:46;4.60;;;4.05;;
10715;SDS011;5409;42.620;23.316;2022-07-10T06:57:13;4.55;;;3.13;;
10715;SDS011;5409;42.620;23.316;2022-07-10T06:59:41;3.70;;;3.40;;
10715;SDS011;5409;42.620;23.316;2022-07-10T07:02:08;7.45;;;3.30;;
10715;SDS011;5409;42.620;23.316;2022-07-10T07:04:35;4.50;;;2.95;;
10715;SDS011;5409;42.620;23.316;2022-07-10T07:07:02;3.53;;;3.22;;
10715;SDS011;5409;42.620;23.316;2022-07-10T07:09:29;4.40;;;3.30;;
10715;SDS011;5409;42.620;23.316;2022-07-10T07:11:56;3.30;;;3.00;;
10715;SDS011;5409;42.620;23.316;2022-07-10T07:14:22;6.28;;;3.45;;
10715;SDS011;5409;42.620;23.316;2022-07-10T07:16:50;7.30;;;3.80;;
10715;SDS011;5409;42.620;23.316;2022-07-10T07:19:25;5.85;;;3.88;;
10715;SDS011;5409;42.620;23.316;2022-07-10T07:21:57;3.90;;;3.53;;
10715;SDS011;5409;42.620;23.316;2022-07-10T07:24:42;3.85;;;3.50;;
10715;SDS011;5409;42.620;23.316;2022-07-10T07:27:09;3.50;;;3.20;;
10715;SDS011;5409;42.620;23.316;2022-07-10T07:29:36;3.75;;;3.20;;
10715;SDS011;5409;42.620;23.316;2022-07-10T07:32:04;4.63;;;3.20;;
10715;SDS011;5409;42.620;23.316;2022-07-10T07:34:31;3.22;;;2.95;;
10715;SDS011;5409;42.620;23.316;2022-07-10T07:36:58;7.18;;;2.95;;
10715;SDS011;5409;42.620;23.316;2022-07-10T07:39:25;5.05;;;3.00;;
10715;SDS011;5409;42.620;23.316;2022-07-10T07:41:51;3.22;;;2.78;;
10715;SDS011;5409;42.620;23.316;2022-07-10T07:44:18;4.28;;;3.30;;
10715;SDS011;5409;42.620;23.316;2022-07-10T07:46:45;4.78;;;3.20;;
10715;SDS011;5409;42.620;23.316;2022-07-10T07:49:13;4.15;;;3.22;;
10715;SDS011;5409;42.620;23.316;2022-07-10T07:51:40;6.88;;;2.90;;
10715;SDS011;5409;42.620;23.316;2022-07-10T07:54:06;3.33;;;2.72;;
10715;SDS011;5409;42.620;23.316;2022-07-10T07:56:33;2.95;;;2.60;;
10715;SDS011;5409;42.620;23.316;2022-07-10T07:59:00;5.18;;;2.80;;
10715;SDS011;5409;42.620;23.316;2022-07-10T08:01:26;4.63;;;2.85;;
10715;SDS011;5409;42.620;23.316;2022-07-10T08:03:53;4.47;;;2.40;;
10715;SDS011;5409;42.620;23.316;2022-07-10T08:06:22;5.38;;;2.85;;
10715;SDS011;5409;42.620;23.316;2022-07-10T08:08:48;6.72;;;3.25;;
10715;SDS011;5409;42.620;23.316;2022-07-10T08:11:15;3.75;;;3.10;;
10715;SDS011;5409;42.620;23.316;2022-07-10T08:13:42;3.70;;;2.72;;
10715;SDS011;5409;42.620;23.316;2022-07-10T08:16:09;2.72;;;2.53;;
10715;SDS011;5409;42.620;23.316;2022-07-10T08:18:36;4.93;;;2.58;;
10715;SDS011;5409;42.620;23.316;2022-07-10T08:21:03;3.55;;;2.33;;
10715;SDS011;5409;42.620;23.316;2022-07-10T08:23:31;2.50;;;2.33;;
10715;SDS011;5409;42.620;23.316;2022-07-10T08:25:58;2.58;;;2.33;;
10715;SDS011;5409;42.620;23.316;2022-07-10T08:28:25;4.65;;;2.38;;
10715;SDS011;5409;42.620;23.316;2022-07-10T08:30:51;3.00;;;2.55;;
10715;SDS011;5409;42.620;23.316;2022-07-10T08:33:18;2.22;;;2.03;;
10715;SDS011;5409;42.620;23.316;2022-07-10T08:35:45;4.38;;;2.72;;
10715;SDS011;5409;42.620;23.316;2022-07-10T08:38:12;3.58;;;2.67;;
10715;SDS011;5409;42.620;23.316;2022-07-10T08:40:40;3.45;;;2.25;;
10715;SDS011;5409;42.620;23.316;2022-07-10T08:43:09;7.05;;;2.42;;
10715;SDS011;5409;42.620;23.316;2022-07-10T08:45:35;3.00;;;2.60;;
10715;SDS011;5409;42.620;23.316;2022-07-10T08:48:03;3.13;;;2.65;;
10715;SDS011;5409;42.620;23.316;2022-07-10T08:50:33;7.03;;;2.72;;
10715;SDS011;5409;42.620;23.316;2022-07-10T08:53:08;3.85;;;2.33;;
10715;SDS011;5409;42.620;23.316;2022-07-10T08:55:38;2.70;;;2.40;;
10715;SDS011;5409;42.620;23.316;2022-07-10T08:58:06;4.60;;;2.45;;
10715;SDS011;5409;42.620;23.316;2022-07-10T09:00:35;2.60;;;2.40;;
10715;SDS011;5409;42.620;23.316;2022-07-10T09:03:01;3.63;;;2.47;;
10715;SDS011;5409;42.620;23.316;2022-07-10T09:05:29;4.75;;;2.78;;
10715;SDS011;5409;42.620;23.316;2022-07-10T09:07:55;5.45;;;2.60;;
10715;SDS011;5409;42.620;23.316;2022-07-10T09:10:23;2.97;;;2.15;;
10715;SDS011;5409;42.620;23.316;2022-07-10T09:12:52;7.18;;;2.53;;
10715;SDS011;5409;42.620;23.316;2022-07-10T09:15:22;3.33;;;2.33;;
10715;SDS011;5409;42.620;23.316;2022-07-10T09:17:53;2.92;;;2.60;;
10715;SDS011;5409;42.620;23.316;2022-07-10T09:20:25;2.75;;;2.40;;
10715;SDS011;5409;42.620;23.316;2022-07-10T09:22:54;2.60;;;2.40;;
10715;SDS011;5409;42.620;23.316;2022-07-10T09:25:21;3.88;;;2.70;;
10715;SDS011;5409;42.620;23.316;2022-07-10T09:27:55;3.25;;;2.67;;
10715;SDS011;5409;42.620;23.316;2022-07-10T09:30:32;3.40;;;2.38;;
10715;SDS011;5409;42.620;23.316;2022-07-10T09:33:19;3.95;;;2.53;;
10715;SDS011;5409;42.620;23.316;2022-07-10T09:36:00;4.25;;;2.45;;
10715;SDS011;5409;42.620;23.316;2022-07-10T09:41:19;3.67;;;2.28;;
10715;SDS011;5409;42.620;23.316;2022-07-10T09:43:47;2.92;;;2.70;;
10715;SDS011;5409;42.620;23.316;2022-07-10T09:46:16;3.55;;;2.50;;
10715;SDS011;5409;42.620;23.316;2022-07-10T09:48:45;4.85;;;2.80;;
10715;SDS011;5409;42.620;23.316;2022-07-10T09:51:11;3.20;;;2.90;;
10715;SDS011;5409;42.620;23.316;2022-07-10T09:53:39;5.82;;;2.65;;
10715;SDS011;5409;42.620;23.316;2022-07-10T09:56:07;2.80;;;2.60;;
10715;SDS011;5409;42.620;23.316;2022-07-10T09:58:35;2.58;;;2.13;;
10715;SDS011;5409;42.620;23.316;2022-07-10T10:01:03;2.47;;;2.22;;
10715;SDS011;5409;42.620;23.316;2022-07-10T10:03:35;4.90;;;2.30;;
10715;SDS011;5409;42.620;23.316;2022-07-10T10:06:03;3.22;;;2.15;;
10715;SDS011;5409;42.620;23.316;2022-07-10T10:08:37;2.53;;;1.90;;
10715;SDS011;5409;42.620;23.316;2022-07-10T10:11:14;2.50;;;2.30;;
10715;SDS011;5409;42.620;23.316;2022-07-10T10:13:45;2.92;;;2.63;;
10715;SDS011;5409;42.620;23.316;2022-07-10T10:16:12;4.28;;;2.05;;
10715;SDS011;5409;42.620;23.316;2022-07-10T10:18:41;2.40;;;2.20;;
10715;SDS011;5409;42.620;23.316;2022-07-10T10:21:23;6.05;;;2.40;;
10715;SDS011;5409;42.620;23.316;2022-07-10T10:23:52;3.03;;;2.28;;
10715;SDS011;5409;42.620;23.316;2022-07-10T10:26:20;3.33;;;2.10;;
10715;SDS011;5409;42.620;23.316;2022-07-10T10:28:47;2.97;;;2.00;;
10715;SDS011;5409;42.620;23.316;2022-07-10T10:31:15;2.63;;;2.40;;
10715;SDS011;5409;42.620;23.316;2022-07-10T10:33:45;2.40;;;2.20;;
10715;SDS011;5409;42.620;23.316;2022-07-10T10:36:14;4.95;;;2.20;;
10715;SDS011;5409;42.620;23.316;2022-07-10T10:39:08;3.50;;;2.20;;
10715;SDS011;5409;42.620;23.316;2022-07-10T10:41:38;5.70;;;2.00;;
10715;SDS011;5409;42.620;23.316;2022-07-10T10:44:27;10.63;;;2.55;;
10715;SDS011;5409;42.620;23.316;2022-07-10T10:47:04;3.45;;;2.20;;
10715;SDS011;5409;42.620;23.316;2022-07-10T10:52:16;5.07;;;2.17;;
10715;SDS011;5409;42.620;23.316;2022-07-10T10:54:59;3.22;;;2.47;;
10715;SDS011;5409;42.620;23.316;2022-07-10T10:57:39;2.60;;;2.38;;
10715;SDS011;5409;42.620;23.316;2022-07-10T11:00:12;3.25;;;2.95;;
10715;SDS011;5409;42.620;23.316;2022-07-10T11:02:41;5.95;;;5.35;;
10715;SDS011;5409;42.620;23.316;2022-07-10T11:08:10;3.42;;;3.13;;
10715;SDS011;5409;42.620;23.316;2022-07-10T11:10:38;5.25;;;3.35;;
10715;SDS011;5409;42.620;23.316;2022-07-10T11:13:06;4.07;;;3.13;;
10715;SDS011;5409;42.620;23.316;2022-07-10T11:15:34;4.47;;;2.78;;
10715;SDS011;5409;42.620;23.316;2022-07-10T11:18:06;2.80;;;2.58;;
10715;SDS011;5409;42.620;23.316;2022-07-10T11:20:34;3.42;;;2.80;;
10715;SDS011;5409;42.620;23.316;2022-07-10T11:26:19;5.72;;;2.28;;
10715;SDS011;5409;42.620;23.316;2022-07-10T11:28:49;5.88;;;2.67;;
10715;SDS011;5409;42.620;23.316;2022-07-10T11:31:17;3.35;;;2.42;;
10715;SDS011;5409;42.620;23.316;2022-07-10T11:33:45;4.85;;;2.28;;
10715;SDS011;5409;42.620;23.316;2022-07-10T11:36:14;3.10;;;1.98;;
10715;SDS011;5409;42.620;23.316;2022-07-10T11:38:42;6.68;;;2.33;;
10715;SDS011;5409;42.620;23.316;2022-07-10T11:41:14;3.38;;;2.00;;
10715;SDS011;5409;42.620;23.316;2022-07-10T11:43:46;5.53;;;2.47;;
10715;SDS011;5409;42.620;23.316;2022-07-10T11:46:13;3.42;;;2.58;;
10715;SDS011;5409;42.620;23.316;2022-07-10T11:48:40;2.97;;;2.10;;
10715;SDS011;5409;42.620;23.316;2022-07-10T11:54:01;3.00;;;2.20;;
10715;SDS011;5409;42.620;23.316;2022-07-10T11:56:29;2.25;;;2.05;;
10715;SDS011;5409;42.620;23.316;2022-07-10T11:58:59;2.65;;;2.35;;
10715;SDS011;5409;42.620;23.316;2022-07-10T12:01:26;3.05;;;2.00;;
10715;SDS011;5409;42.620;23.316;2022-07-10T12:03:57;2.47;;;1.90;;
10715;SDS011;5409;42.620;23.316;2022-07-10T12:06:25;2.20;;;2.00;;
10715;SDS011;5409;42.620;23.316;2022-07-10T12:08:52;4.07;;;2.00;;
10715;SDS011;5409;42.620;23.316;2022-07-10T12:11:21;3.38;;;2.20;;
10715;SDS011;5409;42.620;23.316;2022-07-10T12:13:48;5.75;;;2.40;;
10715;SDS011;5409;42.620;23.316;2022-07-10T12:16:17;4.55;;;2.05;;
10715;SDS011;5409;42.620;23.316;2022-07-10T12:18:44;3.90;;;2.30;;
10715;SDS011;5409;42.620;23.316;2022-07-10T12:21:12;2.95;;;2.22;;
10715;SDS011;5409;42.620;23.316;2022-07-10T12:23:40;2.78;;;2.28;;
10715;SDS011;5409;42.620;23.316;2022-07-10T12:26:09;3.88;;;2.33;;
10715;SDS011;5409;42.620;23.316;2022-07-10T12:31:21;2.95;;;2.35;;
10715;SDS011;5409;42.620;23.316;2022-07-10T12:33:52;3.72;;;2.05;;
10715;SDS011;5409;42.620;23.316;2022-07-10T12:36:22;2.25;;;2.08;;
10715;SDS011;5409;42.620;23.316;2022-07-10T12:38:53;2.55;;;1.92;;
10715;SDS011;5409;42.620;23.316;2022-07-10T12:41:22;2.92;;;1.77;;
10715;SDS011;5409;42.620;23.316;2022-07-10T12:43:50;4.30;;;2.17;;
10715;SDS011;5409;42.620;23.316;2022-07-10T12:46:19;3.00;;;2.05;;
10715;SDS011;5409;42.620;23.316;2022-07-10T12:49:03;3.50;;;2.05;;
10715;SDS011;5409;42.620;23.316;2022-07-10T12:51:31;2.15;;;1.95;;
10715;SDS011;5409;42.620;23.316;2022-07-10T12:53:59;2.67;;;1.73;;
10715;SDS011;5409;42.620;23.316;2022-07-10T12:56:27;7.63;;;1.90;;
10715;SDS011;5409;42.620;23.316;2022-07-10T12:58:58;3.97;;;2.22;;
10715;SDS011;5409;42.620;23.316;2022-07-10T13:01:27;2.85;;;1.80;;
10715;SDS011;5409;42.620;23.316;2022-07-10T13:03:58;2.60;;;1.75;;
10715;SDS011;5409;42.620;23.316;2022-07-10T13:06:26;1.88;;;1.67;;
10715;SDS011;5409;42.620;23.316;2022-07-10T13:08:53;2.67;;;1.60;;
10715;SDS011;5409;42.620;23.316;2022-07-10T13:11:20;3.05;;;2.00;;
10715;SDS011;5409;42.620;23.316;2022-07-10T13:13:47;1.60;;;1.50;;
10715;SDS011;5409;42.620;23.316;2022-07-10T13:16:13;2.00;;;1.40;;
10715;SDS011;5409;42.620;23.316;2022-07-10T13:18:42;2.55;;;1.42;;
10715;SDS011;5409;42.620;23.316;2022-07-10T13:21:10;2.97;;;1.33;;
10715;SDS011;5409;42.620;23.316;2022-07-10T13:23:37;2.65;;;1.10;;
10715;SDS011;5409;42.620;23.316;2022-07-10T13:26:04;2.05;;;1.13;;
10715;SDS011;5409;42.620;23.316;2022-07-10T13:28:32;1.98;;;1.10;;
10715;SDS011;5409;42.620;23.316;2022-07-10T13:30:59;2.38;;;1.23;;
10715;SDS011;5409;42.620;23.316;2022-07-10T13:33:27;2.53;;;1.25;;
10715;SDS011;5409;42.620;23.316;2022-07-10T13:35:55;2.80;;;1.40;;
10715;SDS011;5409;42.620;23.316;2022-07-10T13:38:25;1.13;;;1.00;;
10715;SDS011;5409;42.620;23.316;2022-07-10T13:40:51;1.25;;;1.15;;
10715;SDS011;5409;42.620;23.316;2022-07-10T13:43:18;2.67;;;1.63;;
10715;SDS011;5409;42.620;23.316;2022-07-10T13:45:46;1.52;;;1.23;;
10715;SDS011;5409;42.620;23.316;2022-07-10T13:48:13;4.25;;;1.30;;
10715;SDS011;5409;42.620;23.316;2022-07-10T13:50:41;1.20;;;1.10;;
10715;SDS011;5409;42.620;23.316;2022-07-10T13:53:10;2.03;;;1.48;;
10715;SDS011;5409;42.620;23.316;2022-07-10T13:55:37;1.95;;;1.10;;
10715;SDS011;5409;42.620;23.316;2022-07-10T13:58:04;3.63;;;1.30;;
10715;SDS011;5409;42.620;23.316;2022-07-10T14:00:31;1.40;;;1.20;;
10715;SDS011;5409;42.620;23.316;2022-07-10T14:02:58;1.20;;;1.02;;
10715;SDS011;5409;42.620;23.316;2022-07-10T14:05:25;1.98;;;1.30;;
10715;SDS011;5409;42.620;23.316;2022-07-10T14:07:53;2.55;;;1.30;;
10715;SDS011;5409;42.620;23.316;2022-07-10T14:10:21;1.65;;;1.45;;
10715;SDS011;5409;42.620;23.316;2022-07-10T14:12:47;3.35;;;1.15;;
10715;SDS011;5409;42.620;23.316;2022-07-10T14:15:14;2.67;;;1.45;;
10715;SDS011;5409;42.620;23.316;2022-07-10T14:17:41;1.85;;;1.20;;
10715;SDS011;5409;42.620;23.316;2022-07-10T14:20:09;2.35;;;1.08;;
10715;SDS011;5409;42.620;23.316;2022-07-10T14:22:36;1.52;;;1.10;;
10715;SDS011;5409;42.620;23.316;2022-07-10T14:25:03;2.08;;;1.20;;
10715;SDS011;5409;42.620;23.316;2022-07-10T14:27:32;2.78;;;1.40;;
10715;SDS011;5409;42.620;23.316;2022-07-10T14:29:59;2.50;;;1.25;;
10715;SDS011;5409;42.620;23.316;2022-07-10T14:32:25;1.55;;;1.20;;
10715;SDS011;5409;42.620;23.316;2022-07-10T14:34:52;3.03;;;1.38;;
10715;SDS011;5409;42.620;23.316;2022-07-10T14:37:19;1.48;;;1.00;;
10715;SDS011;5409;42.620;23.316;2022-07-10T14:39:47;1.55;;;1.23;;
10715;SDS011;5409;42.620;23.316;2022-07-10T14:42:14;4.28;;;1.38;;
10715;SDS011;5409;42.620;23.316;2022-07-10T14:44:42;3.35;;;1.52;;
10715;SDS011;5409;42.620;23.316;2022-07-10T14:47:09;2.30;;;1.30;;
10715;SDS011;5409;42.620;23.316;2022-07-10T14:49:36;1.52;;;1.30;;
10715;SDS011;5409;42.620;23.316;2022-07-10T14:52:03;2.15;;;1.52;;
10715;SDS011;5409;42.620;23.316;2022-07-10T14:54:30;2.47;;;1.50;;
10715;SDS011;5409;42.620;23.316;2022-07-10T14:56:58;9.27;;;1.30;;
10715;SDS011;5409;42.620;23.316;2022-07-10T14:59:24;2.60;;;1.30;;
10715;SDS011;5409;42.620;23.316;2022-07-10T15:01:52;4.82;;;1.23;;
10715;SDS011;5409;42.620;23.316;2022-07-10T15:04:19;1.83;;;1.02;;